sensor_id;sensor_type;location;lat;lon;timestamp;temperature;humidity
18884;DHT22;9574;47.282;9.640;2022-08-05T00:01:48;25.90;99.30
18884;DHT22;9574;47.282;9.640;2022-08-05T00:04:15;26.00;99.30
18884;DHT22;9574;47.282;9.640;2022-08-05T00:06:42;26.10;99.40
18884;DHT22;9574;47.282;9.640;2022-08-05T00:09:09;26.20;99.20
18884;DHT22;9574;47.282;9.640;2022-08-05T00:11:36;26.10;99.30
18884;DHT22;9574;47.282;9.640;2022-08-05T00:14:05;26.20;99.40
18884;DHT22;9574;47.282;9.640;2022-08-05T00:16:32;26.00;99.50
18884;DHT22;9574;47.282;9.640;2022-08-05T00:18:59;25.80;99.70
18884;DHT22;9574;47.282;9.640;2022-08-05T00:21:26;25.70;99.90
18884;DHT22;9574;47.282;9.640;2022-08-05T00:23:53;25.60;99.90
18884;DHT22;9574;47.282;9.640;2022-08-05T00:26:20;25.50;99.90
18884;DHT22;9574;47.282;9.640;2022-08-05T00:28:48;25.40;99.90
18884;DHT22;9574;47.282;9.640;2022-08-05T00:31:16;25.40;99.90
18884;DHT22;9574;47.282;9.640;2022-08-05T00:33:43;25.40;99.90
18884;DHT22;9574;47.282;9.640;2022-08-05T00:36:10;25.40;99.90
18884;DHT22;9574;47.282;9.640;2022-08-05T00:38:39;25.50;99.90
18884;DHT22;9574;47.282;9.640;2022-08-05T00:41:06;25.60;99.90
18884;DHT22;9574;47.282;9.640;2022-08-05T00:43:33;25.50;99.90
18884;DHT22;9574;47.282;9.640;2022-08-05T00:46:01;25.40;99.90
18884;DHT22;9574;47.282;9.640;2022-08-05T00:48:29;25.40;99.90
18884;DHT22;9574;47.282;9.640;2022-08-05T00:50:56;25.50;99.90
18884;DHT22;9574;47.282;9.640;2022-08-05T00:53:23;25.50;99.90
18884;DHT22;9574;47.282;9.640;2022-08-05T00:55:50;25.40;99.90
18884;DHT22;9574;47.282;9.640;2022-08-05T00:58:17;25.30;99.90
18884;DHT22;9574;47.282;9.640;2022-08-05T01:00:45;25.40;99.90
18884;DHT22;9574;47.282;9.640;2022-08-05T01:03:13;25.40;99.90
18884;DHT22;9574;47.282;9.640;2022-08-05T01:05:41;25.40;99.90
18884;DHT22;9574;47.282;9.640;2022-08-05T01:08:08;25.40;99.90
18884;DHT22;9574;47.282;9.640;2022-08-05T01:10:40;25.30;99.90
18884;DHT22;9574;47.282;9.640;2022-08-05T01:13:15;25.20;99.90
18884;DHT22;9574;47.282;9.640;2022-08-05T01:15:51;25.10;99.90
18884;DHT22;9574;47.282;9.640;2022-08-05T01:18:24;24.90;99.90
18884;DHT22;9574;47.282;9.640;2022-08-05T01:21:03;24.90;99.90
18884;DHT22;9574;47.282;9.640;2022-08-05T01:23:54;24.80;99.90
18884;DHT22;9574;47.282;9.640;2022-08-05T01:26:45;25.20;99.90
18884;DHT22;9574;47.282;9.640;2022-08-05T01:29:18;25.50;99.90
18884;DHT22;9574;47.282;9.640;2022-08-05T01:31:49;25.50;99.90
18884;DHT22;9574;47.282;9.640;2022-08-05T01:34:19;25.50;99.90
18884;DHT22;9574;47.282;9.640;2022-08-05T01:36:52;25.70;99.90
18884;DHT22;9574;47.282;9.640;2022-08-05T01:39:20;25.70;99.90
18884;DHT22;9574;47.282;9.640;2022-08-05T01:41:48;25.80;99.90
18884;DHT22;9574;47.282;9.640;2022-08-05T01:44:18;25.90;99.90
18884;DHT22;9574;47.282;9.640;2022-08-05T01:46:47;26.10;99.90
18884;DHT22;9574;47.282;9.640;2022-08-05T01:49:18;26.20;99.90
18884;DHT22;9574;47.282;9.640;2022-08-05T01:51:46;26.10;99.90
18884;DHT22;9574;47.282;9.640;2022-08-05T01:54:15;26.20;99.90
18884;DHT22;9574;47.282;9.640;2022-08-05T01:56:43;26.00;99.90
18884;DHT22;9574;47.282;9.640;2022-08-05T01:59:14;26.10;99.90
18884;DHT22;9574;47.282;9.640;2022-08-05T02:01:46;25.90;99.90
18884;DHT22;9574;47.282;9.640;2022-08-05T02:04:16;26.00;99.90
18884;DHT22;9574;47.282;9.640;2022-08-05T02:06:44;26.20;99.90
18884;DHT22;9574;47.282;9.640;2022-08-05T02:09:11;26.00;99.90
18884;DHT22;9574;47.282;9.640;2022-08-05T02:11:42;25.70;99.90
18884;DHT22;9574;47.282;9.640;2022-08-05T02:14:13;25.40;99.90
18884;DHT22;9574;47.282;9.640;2022-08-05T02:16:45;25.40;99.90
18884;DHT22;9574;47.282;9.640;2022-08-05T02:19:23;25.30;99.90
18884;DHT22;9574;47.282;9.640;2022-08-05T02:21:56;25.30;99.90
18884;DHT22;9574;47.282;9.640;2022-08-05T02:24:27;25.70;99.90
18884;DHT22;9574;47.282;9.640;2022-08-05T02:27:00;25.70;99.90
18884;DHT22;9574;47.282;9.640;2022-08-05T02:29:29;25.50;99.90
18884;DHT22;9574;47.282;9.640;2022-08-05T02:32:00;25.50;99.90
18884;DHT22;9574;47.282;9.640;2022-08-05T02:34:30;25.40;99.90
18884;DHT22;9574;47.282;9.640;2022-08-05T02:37:01;25.30;99.90
18884;DHT22;9574;47.282;9.640;2022-08-05T02:39:31;25.30;99.90
18884;DHT22;9574;47.282;9.640;2022-08-05T02:42:01;25.30;99.90
18884;DHT22;9574;47.282;9.640;2022-08-05T02:44:29;25.30;99.90
18884;DHT22;9574;47.282;9.640;2022-08-05T02:46:59;25.10;99.90
18884;DHT22;9574;47.282;9.640;2022-08-05T02:49:30;25.10;99.90
18884;DHT22;9574;47.282;9.640;2022-08-05T02:51:58;25.10;99.90
18884;DHT22;9574;47.282;9.640;2022-08-05T02:54:26;25.30;99.90
18884;DHT22;9574;47.282;9.640;2022-08-05T02:56:54;25.40;99.90
18884;DHT22;9574;47.282;9.640;2022-08-05T02:59:23;25.50;99.90
18884;DHT22;9574;47.282;9.640;2022-08-05T03:01:53;25.50;99.90
18884;DHT22;9574;47.282;9.640;2022-08-05T03:04:24;25.50;99.90
18884;DHT22;9574;47.282;9.640;2022-08-05T03:06:51;25.30;99.90
18884;DHT22;9574;47.282;9.640;2022-08-05T03:09:18;25.30;99.90
18884;DHT22;9574;47.282;9.640;2022-08-05T03:11:45;25.20;99.90
18884;DHT22;9574;47.282;9.640;2022-08-05T03:14:12;25.20;99.90
18884;DHT22;9574;47.282;9.640;2022-08-05T03:16:39;25.00;99.90
18884;DHT22;9574;47.282;9.640;2022-08-05T03:19:06;25.00;99.90
18884;DHT22;9574;47.282;9.640;2022-08-05T03:21:34;25.00;99.90
18884;DHT22;9574;47.282;9.640;2022-08-05T03:24:02;25.00;99.90
18884;DHT22;9574;47.282;9.640;2022-08-05T03:26:29;25.00;99.90
18884;DHT22;9574;47.282;9.640;2022-08-05T03:28:56;24.90;99.90
18884;DHT22;9574;47.282;9.640;2022-08-05T03:31:24;25.00;99.90
18884;DHT22;9574;47.282;9.640;2022-08-05T03:33:52;25.00;99.90
18884;DHT22;9574;47.282;9.640;2022-08-05T03:36:19;25.00;99.90
18884;DHT22;9574;47.282;9.640;2022-08-05T03:38:47;25.20;99.90
18884;DHT22;9574;47.282;9.640;2022-08-05T03:41:15;25.50;99.90
18884;DHT22;9574;47.282;9.640;2022-08-05T03:43:42;25.40;99.90
18884;DHT22;9574;47.282;9.640;2022-08-05T03:46:09;25.30;99.90
18884;DHT22;9574;47.282;9.640;2022-08-05T03:48:36;25.20;99.90
18884;DHT22;9574;47.282;9.640;2022-08-05T03:51:11;25.10;99.90
18884;DHT22;9574;47.282;9.640;2022-08-05T03:53:43;25.10;99.90
18884;DHT22;9574;47.282;9.640;2022-08-05T03:56:20;25.00;99.90
18884;DHT22;9574;47.282;9.640;2022-08-05T03:58:49;25.10;99.90
18884;DHT22;9574;47.282;9.640;2022-08-05T04:01:18;25.10;99.90
18884;DHT22;9574;47.282;9.640;2022-08-05T04:03:49;25.00;99.90
18884;DHT22;9574;47.282;9.640;2022-08-05T04:06:17;25.00;99.90
18884;DHT22;9574;47.282;9.640;2022-08-05T04:08:45;24.90;99.90
18884;DHT22;9574;47.282;9.640;2022-08-05T04:11:12;24.90;99.90
18884;DHT22;9574;47.282;9.640;2022-08-05T04:13:41;25.00;99.90
18884;DHT22;9574;47.282;9.640;2022-08-05T04:16:08;25.30;99.90
18884;DHT22;9574;47.282;9.640;2022-08-05T04:18:37;25.40;99.90
18884;DHT22;9574;47.282;9.640;2022-08-05T04:21:04;25.50;99.90
18884;DHT22;9574;47.282;9.640;2022-08-05T04:23:33;25.60;99.90
18884;DHT22;9574;47.282;9.640;2022-08-05T04:26:00;25.80;99.90
18884;DHT22;9574;47.282;9.640;2022-08-05T04:28:27;25.80;99.90
18884;DHT22;9574;47.282;9.640;2022-08-05T04:30:55;25.90;99.90
18884;DHT22;9574;47.282;9.640;2022-08-05T04:33:22;25.90;99.90
18884;DHT22;9574;47.282;9.640;2022-08-05T04:35:49;26.00;99.90
18884;DHT22;9574;47.282;9.640;2022-08-05T04:38:16;26.00;99.90
18884;DHT22;9574;47.282;9.640;2022-08-05T04:40:43;25.80;99.90
18884;DHT22;9574;47.282;9.640;2022-08-05T04:43:10;25.50;99.90
18884;DHT22;9574;47.282;9.640;2022-08-05T04:45:37;25.00;99.90
18884;DHT22;9574;47.282;9.640;2022-08-05T04:48:07;24.80;99.90
18884;DHT22;9574;47.282;9.640;2022-08-05T04:50:41;24.80;99.90
18884;DHT22;9574;47.282;9.640;2022-08-05T04:53:09;24.70;99.90
18884;DHT22;9574;47.282;9.640;2022-08-05T04:55:36;24.70;99.90
18884;DHT22;9574;47.282;9.640;2022-08-05T04:58:03;24.60;99.90
18884;DHT22;9574;47.282;9.640;2022-08-05T05:00:31;24.60;99.90
18884;DHT22;9574;47.282;9.640;2022-08-05T05:02:58;24.60;99.90
18884;DHT22;9574;47.282;9.640;2022-08-05T05:05:27;24.80;99.90
18884;DHT22;9574;47.282;9.640;2022-08-05T05:07:55;25.20;99.90
18884;DHT22;9574;47.282;9.640;2022-08-05T05:10:24;25.00;99.90
18884;DHT22;9574;47.282;9.640;2022-08-05T05:12:51;25.00;99.90
18884;DHT22;9574;47.282;9.640;2022-08-05T05:15:18;25.30;99.90
18884;DHT22;9574;47.282;9.640;2022-08-05T05:17:45;25.60;99.90
18884;DHT22;9574;47.282;9.640;2022-08-05T05:20:13;25.70;99.90
18884;DHT22;9574;47.282;9.640;2022-08-05T05:22:41;25.40;99.90
18884;DHT22;9574;47.282;9.640;2022-08-05T05:25:08;25.20;99.90
18884;DHT22;9574;47.282;9.640;2022-08-05T05:27:35;25.10;99.90
18884;DHT22;9574;47.282;9.640;2022-08-05T05:30:04;25.00;99.90
18884;DHT22;9574;47.282;9.640;2022-08-05T05:32:31;24.90;99.90
18884;DHT22;9574;47.282;9.640;2022-08-05T05:34:58;24.80;99.90
18884;DHT22;9574;47.282;9.640;2022-08-05T05:37:25;24.80;99.90
18884;DHT22;9574;47.282;9.640;2022-08-05T05:39:53;24.80;99.90
18884;DHT22;9574;47.282;9.640;2022-08-05T05:42:20;24.70;99.90
18884;DHT22;9574;47.282;9.640;2022-08-05T05:44:47;24.80;99.90
18884;DHT22;9574;47.282;9.640;2022-08-05T05:47:14;24.90;99.90
18884;DHT22;9574;47.282;9.640;2022-08-05T05:49:41;24.80;99.90
18884;DHT22;9574;47.282;9.640;2022-08-05T05:52:08;25.20;99.90
18884;DHT22;9574;47.282;9.640;2022-08-05T05:54:35;25.50;99.90
18884;DHT22;9574;47.282;9.640;2022-08-05T05:57:04;25.50;99.90
18884;DHT22;9574;47.282;9.640;2022-08-05T05:59:31;25.30;99.90
18884;DHT22;9574;47.282;9.640;2022-08-05T06:01:58;25.20;99.90
18884;DHT22;9574;47.282;9.640;2022-08-05T06:04:25;25.20;99.90
18884;DHT22;9574;47.282;9.640;2022-08-05T06:06:51;25.40;99.90
18884;DHT22;9574;47.282;9.640;2022-08-05T06:09:18;25.50;99.90
18884;DHT22;9574;47.282;9.640;2022-08-05T06:11:45;25.50;99.90
18884;DHT22;9574;47.282;9.640;2022-08-05T06:14:14;25.50;99.90
18884;DHT22;9574;47.282;9.640;2022-08-05T06:16:40;25.30;99.90
18884;DHT22;9574;47.282;9.640;2022-08-05T06:19:07;25.10;99.90
18884;DHT22;9574;47.282;9.640;2022-08-05T06:21:35;25.10;99.90
18884;DHT22;9574;47.282;9.640;2022-08-05T06:24:03;25.10;99.90
18884;DHT22;9574;47.282;9.640;2022-08-05T06:26:30;25.30;99.90
18884;DHT22;9574;47.282;9.640;2022-08-05T06:28:56;25.60;99.90
18884;DHT22;9574;47.282;9.640;2022-08-05T06:31:25;25.80;99.90
18884;DHT22;9574;47.282;9.640;2022-08-05T06:33:52;25.90;99.90
18884;DHT22;9574;47.282;9.640;2022-08-05T06:36:19;26.10;99.90
18884;DHT22;9574;47.282;9.640;2022-08-05T06:38:46;26.10;99.90
18884;DHT22;9574;47.282;9.640;2022-08-05T06:41:14;26.00;99.90
18884;DHT22;9574;47.282;9.640;2022-08-05T06:43:41;26.00;99.90
18884;DHT22;9574;47.282;9.640;2022-08-05T06:46:08;26.20;99.90
18884;DHT22;9574;47.282;9.640;2022-08-05T06:48:37;26.30;99.90
18884;DHT22;9574;47.282;9.640;2022-08-05T06:51:04;26.30;99.90
18884;DHT22;9574;47.282;9.640;2022-08-05T06:53:31;26.40;99.90
18884;DHT22;9574;47.282;9.640;2022-08-05T06:55:59;26.50;99.90
18884;DHT22;9574;47.282;9.640;2022-08-05T06:58:28;26.50;99.90
18884;DHT22;9574;47.282;9.640;2022-08-05T07:00:57;26.60;99.90
18884;DHT22;9574;47.282;9.640;2022-08-05T07:03:25;26.80;99.90
18884;DHT22;9574;47.282;9.640;2022-08-05T07:05:53;26.80;99.90
18884;DHT22;9574;47.282;9.640;2022-08-05T07:08:20;26.90;99.90
18884;DHT22;9574;47.282;9.640;2022-08-05T07:10:48;26.90;99.90
18884;DHT22;9574;47.282;9.640;2022-08-05T07:13:15;26.90;99.90
18884;DHT22;9574;47.282;9.640;2022-08-05T07:15:59;27.00;99.90
18884;DHT22;9574;47.282;9.640;2022-08-05T07:18:43;26.90;99.90
18884;DHT22;9574;47.282;9.640;2022-08-05T07:21:11;26.80;99.90
18884;DHT22;9574;47.282;9.640;2022-08-05T07:23:38;26.90;99.90
18884;DHT22;9574;47.282;9.640;2022-08-05T07:26:05;26.90;99.90
18884;DHT22;9574;47.282;9.640;2022-08-05T07:28:32;26.80;99.90
18884;DHT22;9574;47.282;9.640;2022-08-05T07:30:59;26.70;99.90
18884;DHT22;9574;47.282;9.640;2022-08-05T07:33:26;26.40;99.90
18884;DHT22;9574;47.282;9.640;2022-08-05T07:35:53;26.20;99.90
18884;DHT22;9574;47.282;9.640;2022-08-05T07:38:22;26.00;99.90
18884;DHT22;9574;47.282;9.640;2022-08-05T07:40:49;26.00;99.90
18884;DHT22;9574;47.282;9.640;2022-08-05T07:43:16;26.20;99.90
18884;DHT22;9574;47.282;9.640;2022-08-05T07:45:43;26.30;99.90
18884;DHT22;9574;47.282;9.640;2022-08-05T07:48:10;26.40;99.90
18884;DHT22;9574;47.282;9.640;2022-08-05T07:50:37;26.50;99.90
18884;DHT22;9574;47.282;9.640;2022-08-05T07:53:04;26.30;99.90
18884;DHT22;9574;47.282;9.640;2022-08-05T07:55:32;26.10;99.90
18884;DHT22;9574;47.282;9.640;2022-08-05T07:57:59;26.20;99.90
18884;DHT22;9574;47.282;9.640;2022-08-05T08:00:26;26.10;99.90
18884;DHT22;9574;47.282;9.640;2022-08-05T08:02:53;26.30;99.90
18884;DHT22;9574;47.282;9.640;2022-08-05T08:05:20;26.20;99.90
18884;DHT22;9574;47.282;9.640;2022-08-05T08:07:47;26.30;99.90
18884;DHT22;9574;47.282;9.640;2022-08-05T08:10:14;26.60;99.90
18884;DHT22;9574;47.282;9.640;2022-08-05T08:12:42;26.80;99.90
18884;DHT22;9574;47.282;9.640;2022-08-05T08:15:10;26.90;99.90
18884;DHT22;9574;47.282;9.640;2022-08-05T08:17:37;27.00;99.90
18884;DHT22;9574;47.282;9.640;2022-08-05T08:20:04;27.10;99.90
18884;DHT22;9574;47.282;9.640;2022-08-05T08:22:32;27.20;99.90
18884;DHT22;9574;47.282;9.640;2022-08-05T08:24:59;27.20;99.90
18884;DHT22;9574;47.282;9.640;2022-08-05T08:27:26;27.20;99.90
18884;DHT22;9574;47.282;9.640;2022-08-05T08:29:54;27.20;99.90
18884;DHT22;9574;47.282;9.640;2022-08-05T08:32:22;27.20;99.90
18884;DHT22;9574;47.282;9.640;2022-08-05T08:34:49;27.10;99.90
18884;DHT22;9574;47.282;9.640;2022-08-05T08:37:16;27.10;99.90
18884;DHT22;9574;47.282;9.640;2022-08-05T08:39:43;27.10;99.90
18884;DHT22;9574;47.282;9.640;2022-08-05T08:42:11;27.10;99.90
18884;DHT22;9574;47.282;9.640;2022-08-05T08:44:39;27.00;99.90
18884;DHT22;9574;47.282;9.640;2022-08-05T08:47:08;26.90;99.90
18884;DHT22;9574;47.282;9.640;2022-08-05T08:49:35;26.80;99.90
18884;DHT22;9574;47.282;9.640;2022-08-05T08:52:10;27.10;99.90
18884;DHT22;9574;47.282;9.640;2022-08-05T08:54:38;27.10;99.90
18884;DHT22;9574;47.282;9.640;2022-08-05T08:57:06;27.20;99.90
18884;DHT22;9574;47.282;9.640;2022-08-05T08:59:33;27.30;99.90
18884;DHT22;9574;47.282;9.640;2022-08-05T09:02:04;27.90;99.90
18884;DHT22;9574;47.282;9.640;2022-08-05T09:04:34;28.50;99.90
18884;DHT22;9574;47.282;9.640;2022-08-05T09:07:03;28.90;99.90
18884;DHT22;9574;47.282;9.640;2022-08-05T09:09:31;29.20;99.90
18884;DHT22;9574;47.282;9.640;2022-08-05T09:11:58;29.20;99.90
18884;DHT22;9574;47.282;9.640;2022-08-05T09:14:25;29.20;99.90
18884;DHT22;9574;47.282;9.640;2022-08-05T09:16:52;29.40;99.50
18884;DHT22;9574;47.282;9.640;2022-08-05T09:19:19;29.40;99.90
18884;DHT22;9574;47.282;9.640;2022-08-05T09:21:48;29.60;99.10
18884;DHT22;9574;47.282;9.640;2022-08-05T09:24:15;29.90;99.20
18884;DHT22;9574;47.282;9.640;2022-08-05T09:26:46;30.20;98.00
18884;DHT22;9574;47.282;9.640;2022-08-05T09:29:13;30.20;98.60
18884;DHT22;9574;47.282;9.640;2022-08-05T09:31:40;30.20;99.20
18884;DHT22;9574;47.282;9.640;2022-08-05T09:34:09;30.00;99.90
18884;DHT22;9574;47.282;9.640;2022-08-05T09:36:42;29.80;98.40
18884;DHT22;9574;47.282;9.640;2022-08-05T09:39:11;29.50;99.90
18884;DHT22;9574;47.282;9.640;2022-08-05T09:41:54;29.50;99.80
18884;DHT22;9574;47.282;9.640;2022-08-05T09:44:35;29.50;99.90
18884;DHT22;9574;47.282;9.640;2022-08-05T09:47:08;29.40;99.90
18884;DHT22;9574;47.282;9.640;2022-08-05T09:49:43;29.30;99.90
18884;DHT22;9574;47.282;9.640;2022-08-05T09:52:19;29.20;99.90
18884;DHT22;9574;47.282;9.640;2022-08-05T09:54:58;29.30;99.90
18884;DHT22;9574;47.282;9.640;2022-08-05T09:57:34;29.70;99.90
18884;DHT22;9574;47.282;9.640;2022-08-05T10:00:06;29.90;99.90
18884;DHT22;9574;47.282;9.640;2022-08-05T10:02:36;30.10;99.90
18884;DHT22;9574;47.282;9.640;2022-08-05T10:05:09;30.40;99.90
18884;DHT22;9574;47.282;9.640;2022-08-05T10:07:48;30.50;99.60
18884;DHT22;9574;47.282;9.640;2022-08-05T10:10:18;30.50;99.50
18884;DHT22;9574;47.282;9.640;2022-08-05T10:12:47;30.60;99.90
18884;DHT22;9574;47.282;9.640;2022-08-05T10:15:20;30.70;99.30
18884;DHT22;9574;47.282;9.640;2022-08-05T10:18:11;30.80;98.60
18884;DHT22;9574;47.282;9.640;2022-08-05T10:20:42;30.90;98.60
18884;DHT22;9574;47.282;9.640;2022-08-05T10:23:10;30.90;98.10
18884;DHT22;9574;47.282;9.640;2022-08-05T10:25:39;31.00;98.50
18884;DHT22;9574;47.282;9.640;2022-08-05T10:28:06;31.10;99.00
18884;DHT22;9574;47.282;9.640;2022-08-05T10:30:35;31.20;99.10
18884;DHT22;9574;47.282;9.640;2022-08-05T10:33:02;31.30;98.40
18884;DHT22;9574;47.282;9.640;2022-08-05T10:35:30;31.40;99.60
18884;DHT22;9574;47.282;9.640;2022-08-05T10:37:57;31.40;98.10
18884;DHT22;9574;47.282;9.640;2022-08-05T10:40:31;31.30;97.60
18884;DHT22;9574;47.282;9.640;2022-08-05T10:43:07;31.20;99.90
18884;DHT22;9574;47.282;9.640;2022-08-05T10:45:35;31.40;99.90
18884;DHT22;9574;47.282;9.640;2022-08-05T10:48:30;31.80;98.40
18884;DHT22;9574;47.282;9.640;2022-08-05T10:51:01;32.00;97.20
18884;DHT22;9574;47.282;9.640;2022-08-05T10:53:52;32.10;96.90
18884;DHT22;9574;47.282;9.640;2022-08-05T10:56:21;32.10;99.90
18884;DHT22;9574;47.282;9.640;2022-08-05T10:59:02;32.30;98.10
18884;DHT22;9574;47.282;9.640;2022-08-05T11:01:32;32.30;97.20
18884;DHT22;9574;47.282;9.640;2022-08-05T11:04:07;31.90;98.00
18884;DHT22;9574;47.282;9.640;2022-08-05T11:07:04;31.70;99.20
18884;DHT22;9574;47.282;9.640;2022-08-05T11:09:38;31.80;97.50
18884;DHT22;9574;47.282;9.640;2022-08-05T11:15:18;32.10;97.70
18884;DHT22;9574;47.282;9.640;2022-08-05T11:17:45;32.10;97.40
18884;DHT22;9574;47.282;9.640;2022-08-05T11:20:32;32.10;98.10
18884;DHT22;9574;47.282;9.640;2022-08-05T11:23:35;32.40;97.70
18884;DHT22;9574;47.282;9.640;2022-08-05T11:26:04;32.50;97.50
18884;DHT22;9574;47.282;9.640;2022-08-05T11:28:42;32.70;97.90
18884;DHT22;9574;47.282;9.640;2022-08-05T11:31:27;32.80;95.10
18884;DHT22;9574;47.282;9.640;2022-08-05T11:34:04;32.90;95.90
18884;DHT22;9574;47.282;9.640;2022-08-05T11:36:40;33.00;95.80
18884;DHT22;9574;47.282;9.640;2022-08-05T11:39:09;33.10;95.70
18884;DHT22;9574;47.282;9.640;2022-08-05T11:41:38;33.20;96.80
18884;DHT22;9574;47.282;9.640;2022-08-05T11:44:07;33.20;96.60
18884;DHT22;9574;47.282;9.640;2022-08-05T11:46:39;33.40;96.70
18884;DHT22;9574;47.282;9.640;2022-08-05T11:49:10;33.50;95.50
18884;DHT22;9574;47.282;9.640;2022-08-05T11:51:40;33.30;95.30
18884;DHT22;9574;47.282;9.640;2022-08-05T11:54:08;33.10;95.90
18884;DHT22;9574;47.282;9.640;2022-08-05T11:56:43;32.90;96.00
18884;DHT22;9574;47.282;9.640;2022-08-05T11:59:17;32.40;96.20
18884;DHT22;9574;47.282;9.640;2022-08-05T12:01:54;32.10;96.40
18884;DHT22;9574;47.282;9.640;2022-08-05T12:04:21;32.10;97.00
18884;DHT22;9574;47.282;9.640;2022-08-05T12:06:48;32.10;97.20
18884;DHT22;9574;47.282;9.640;2022-08-05T12:09:17;32.20;96.70
18884;DHT22;9574;47.282;9.640;2022-08-05T12:11:46;32.30;96.70
18884;DHT22;9574;47.282;9.640;2022-08-05T12:14:13;32.50;96.30
18884;DHT22;9574;47.282;9.640;2022-08-05T12:16:41;32.60;96.30
18884;DHT22;9574;47.282;9.640;2022-08-05T12:19:11;32.70;97.10
18884;DHT22;9574;47.282;9.640;2022-08-05T12:21:43;33.00;97.00
18884;DHT22;9574;47.282;9.640;2022-08-05T12:24:13;33.10;96.30
18884;DHT22;9574;47.282;9.640;2022-08-05T12:26:42;33.20;96.40
18884;DHT22;9574;47.282;9.640;2022-08-05T12:29:11;33.50;96.50
18884;DHT22;9574;47.282;9.640;2022-08-05T12:31:39;33.70;96.20
18884;DHT22;9574;47.282;9.640;2022-08-05T12:34:07;33.90;95.80
18884;DHT22;9574;47.282;9.640;2022-08-05T12:36:37;34.00;96.00
18884;DHT22;9574;47.282;9.640;2022-08-05T12:39:04;33.80;96.00
18884;DHT22;9574;47.282;9.640;2022-08-05T12:41:33;33.80;96.90
18884;DHT22;9574;47.282;9.640;2022-08-05T12:44:02;33.50;96.10
18884;DHT22;9574;47.282;9.640;2022-08-05T12:46:30;33.50;96.20
18884;DHT22;9574;47.282;9.640;2022-08-05T12:48:59;33.70;97.70
18884;DHT22;9574;47.282;9.640;2022-08-05T12:51:27;33.80;96.20
18884;DHT22;9574;47.282;9.640;2022-08-05T12:54:01;33.70;96.70
18884;DHT22;9574;47.282;9.640;2022-08-05T12:56:29;33.80;97.80
18884;DHT22;9574;47.282;9.640;2022-08-05T12:59:16;34.00;95.80
18884;DHT22;9574;47.282;9.640;2022-08-05T13:01:51;34.10;96.00
18884;DHT22;9574;47.282;9.640;2022-08-05T13:04:19;34.20;97.50
18884;DHT22;9574;47.282;9.640;2022-08-05T13:06:46;34.20;96.00
18884;DHT22;9574;47.282;9.640;2022-08-05T13:09:15;34.40;95.80
18884;DHT22;9574;47.282;9.640;2022-08-05T13:11:43;34.40;95.30
18884;DHT22;9574;47.282;9.640;2022-08-05T13:14:15;34.50;95.50
18884;DHT22;9574;47.282;9.640;2022-08-05T13:16:48;34.60;95.40
18884;DHT22;9574;47.282;9.640;2022-08-05T13:19:15;34.60;94.70
18884;DHT22;9574;47.282;9.640;2022-08-05T13:21:44;34.60;95.30
18884;DHT22;9574;47.282;9.640;2022-08-05T13:24:12;34.70;94.20
18884;DHT22;9574;47.282;9.640;2022-08-05T13:26:40;34.70;95.10
18884;DHT22;9574;47.282;9.640;2022-08-05T13:29:08;34.70;96.80
18884;DHT22;9574;47.282;9.640;2022-08-05T13:31:36;34.70;95.40
18884;DHT22;9574;47.282;9.640;2022-08-05T13:34:07;34.80;94.70
18884;DHT22;9574;47.282;9.640;2022-08-05T13:36:41;34.80;94.70
18884;DHT22;9574;47.282;9.640;2022-08-05T13:39:09;34.70;94.70
18884;DHT22;9574;47.282;9.640;2022-08-05T13:41:40;34.80;95.20
18884;DHT22;9574;47.282;9.640;2022-08-05T13:44:08;34.80;95.00
18884;DHT22;9574;47.282;9.640;2022-08-05T13:46:36;34.90;94.70
18884;DHT22;9574;47.282;9.640;2022-08-05T13:49:03;35.00;94.70
18884;DHT22;9574;47.282;9.640;2022-08-05T13:51:32;34.90;94.70
18884;DHT22;9574;47.282;9.640;2022-08-05T13:53:59;34.90;95.00
18884;DHT22;9574;47.282;9.640;2022-08-05T13:56:26;34.90;95.30
18884;DHT22;9574;47.282;9.640;2022-08-05T13:58:54;35.00;94.60
18884;DHT22;9574;47.282;9.640;2022-08-05T14:01:21;35.00;94.50
18884;DHT22;9574;47.282;9.640;2022-08-05T14:03:48;35.10;93.50
18884;DHT22;9574;47.282;9.640;2022-08-05T14:06:29;34.90;93.70
18884;DHT22;9574;47.282;9.640;2022-08-05T14:08:57;34.80;93.10
18884;DHT22;9574;47.282;9.640;2022-08-05T14:11:24;34.60;92.40
18884;DHT22;9574;47.282;9.640;2022-08-05T14:13:54;34.30;92.80
18884;DHT22;9574;47.282;9.640;2022-08-05T14:16:21;34.10;94.50
18884;DHT22;9574;47.282;9.640;2022-08-05T14:18:48;33.90;96.00
18884;DHT22;9574;47.282;9.640;2022-08-05T14:21:15;33.70;95.20
18884;DHT22;9574;47.282;9.640;2022-08-05T14:23:43;33.50;95.60
18884;DHT22;9574;47.282;9.640;2022-08-05T14:26:09;33.30;96.50
18884;DHT22;9574;47.282;9.640;2022-08-05T14:28:36;33.10;96.20
18884;DHT22;9574;47.282;9.640;2022-08-05T14:31:05;33.10;96.20
18884;DHT22;9574;47.282;9.640;2022-08-05T14:33:32;32.90;96.90
18884;DHT22;9574;47.282;9.640;2022-08-05T14:35:59;32.80;97.10
18884;DHT22;9574;47.282;9.640;2022-08-05T14:38:26;32.70;97.00
18884;DHT22;9574;47.282;9.640;2022-08-05T14:40:54;32.60;96.80
18884;DHT22;9574;47.282;9.640;2022-08-05T14:43:22;32.50;96.50
18884;DHT22;9574;47.282;9.640;2022-08-05T14:45:49;32.40;96.20
18884;DHT22;9574;47.282;9.640;2022-08-05T14:48:18;32.30;96.50
18884;DHT22;9574;47.282;9.640;2022-08-05T14:50:44;32.30;96.70
18884;DHT22;9574;47.282;9.640;2022-08-05T14:53:11;32.20;96.90
18884;DHT22;9574;47.282;9.640;2022-08-05T14:55:39;32.10;97.10
18884;DHT22;9574;47.282;9.640;2022-08-05T14:58:07;32.00;97.00
18884;DHT22;9574;47.282;9.640;2022-08-05T15:00:34;32.00;97.00
18884;DHT22;9574;47.282;9.640;2022-08-05T15:03:03;32.00;97.00
18884;DHT22;9574;47.282;9.640;2022-08-05T15:05:32;31.90;96.90
18884;DHT22;9574;47.282;9.640;2022-08-05T15:07:59;32.00;96.70
18884;DHT22;9574;47.282;9.640;2022-08-05T15:10:27;31.90;97.20
18884;DHT22;9574;47.282;9.640;2022-08-05T15:12:53;31.90;97.50
18884;DHT22;9574;47.282;9.640;2022-08-05T15:15:21;31.90;97.10
18884;DHT22;9574;47.282;9.640;2022-08-05T15:17:48;31.80;97.20
18884;DHT22;9574;47.282;9.640;2022-08-05T15:20:15;31.70;97.40
18884;DHT22;9574;47.282;9.640;2022-08-05T15:22:43;31.70;97.60
18884;DHT22;9574;47.282;9.640;2022-08-05T15:25:10;31.70;97.40
18884;DHT22;9574;47.282;9.640;2022-08-05T15:27:37;31.60;97.50
18884;DHT22;9574;47.282;9.640;2022-08-05T15:30:05;31.70;97.70
18884;DHT22;9574;47.282;9.640;2022-08-05T15:32:32;31.60;97.70
18884;DHT22;9574;47.282;9.640;2022-08-05T15:34:59;31.50;97.80
18884;DHT22;9574;47.282;9.640;2022-08-05T15:37:26;31.40;97.30
18884;DHT22;9574;47.282;9.640;2022-08-05T15:39:54;31.40;97.80
18884;DHT22;9574;47.282;9.640;2022-08-05T15:42:22;31.30;97.70
18884;DHT22;9574;47.282;9.640;2022-08-05T15:44:50;31.20;97.80
18884;DHT22;9574;47.282;9.640;2022-08-05T15:47:19;31.20;97.80
18884;DHT22;9574;47.282;9.640;2022-08-05T15:49:48;31.10;98.00
18884;DHT22;9574;47.282;9.640;2022-08-05T15:52:15;31.20;98.10
18884;DHT22;9574;47.282;9.640;2022-08-05T15:54:42;31.10;98.20
18884;DHT22;9574;47.282;9.640;2022-08-05T15:57:10;31.10;98.30
18884;DHT22;9574;47.282;9.640;2022-08-05T15:59:38;31.00;99.10
18884;DHT22;9574;47.282;9.640;2022-08-05T16:02:05;30.60;99.90